sensor_id;sensor_type;location;lat;lon;timestamp;P1;durP1;ratioP1;P2;durP2;ratioP2
44212;SDS011;29882;46.356;17.798;2022-08-19T04:43:08;12.50;;;6.50;;
44212;SDS011;29882;46.356;17.798;2022-08-19T04:45:44;25.70;;;8.73;;
44212;SDS011;29882;46.356;17.798;2022-08-19T04:48:12;17.13;;;7.68;;
44212;SDS011;29882;46.356;17.798;2022-08-19T04:50:53;15.90;;;7.97;;
44212;SDS011;29882;46.356;17.798;2022-08-19T04:53:31;16.58;;;7.47;;
44212;SDS011;29882;46.356;17.798;2022-08-19T04:56:04;16.33;;;8.30;;
44212;SDS011;29882;46.356;17.798;2022-08-19T04:58:37;14.43;;;7.88;;
44212;SDS011;29882;46.356;17.798;2022-08-19T05:01:06;13.75;;;7.45;;
44212;SDS011;29882;46.356;17.798;2022-08-19T05:03:35;16.02;;;7.82;;
44212;SDS011;29882;46.356;17.798;2022-08-19T05:06:06;13.38;;;7.95;;
44212;SDS011;29882;46.356;17.798;2022-08-19T05:08:35;14.50;;;7.95;;
44212;SDS011;29882;46.356;17.798;2022-08-19T05:11:08;21.60;;;7.95;;
44212;SDS011;29882;46.356;17.798;2022-08-19T05:13:40;17.42;;;8.10;;
44212;SDS011;29882;46.356;17.798;2022-08-19T05:16:10;13.07;;;7.05;;
44212;SDS011;29882;46.356;17.798;2022-08-19T05:18:39;17.42;;;8.40;;
44212;SDS011;29882;46.356;17.798;2022-08-19T05:21:25;17.60;;;7.65;;
44212;SDS011;29882;46.356;17.798;2022-08-19T05:24:12;18.67;;;7.70;;
44212;SDS011;29882;46.356;17.798;2022-08-19T05:26:41;16.15;;;7.70;;
44212;SDS011;29882;46.356;17.798;2022-08-19T05:29:09;14.80;;;8.45;;
44212;SDS011;29882;46.356;17.798;2022-08-19T05:31:36;21.02;;;8.48;;
44212;SDS011;29882;46.356;17.798;2022-08-19T05:34:07;17.50;;;8.73;;
44212;SDS011;29882;46.356;17.798;2022-08-19T05:36:45;20.27;;;8.38;;
44212;SDS011;29882;46.356;17.798;2022-08-19T05:39:17;23.98;;;8.50;;
44212;SDS011;29882;46.356;17.798;2022-08-19T05:41:48;17.27;;;8.32;;
44212;SDS011;29882;46.356;17.798;2022-08-19T05:44:16;19.30;;;7.40;;
44212;SDS011;29882;46.356;17.798;2022-08-19T05:46:44;16.38;;;7.82;;
44212;SDS011;29882;46.356;17.798;2022-08-19T05:49:14;17.98;;;8.70;;
44212;SDS011;29882;46.356;17.798;2022-08-19T05:51:42;15.05;;;7.45;;
44212;SDS011;29882;46.356;17.798;2022-08-19T05:54:09;23.40;;;8.70;;
44212;SDS011;29882;46.356;17.798;2022-08-19T05:56:40;13.05;;;7.80;;
44212;SDS011;29882;46.356;17.798;2022-08-19T05:59:09;17.13;;;8.00;;
44212;SDS011;29882;46.356;17.798;2022-08-19T06:01:38;21.40;;;9.70;;
44212;SDS011;29882;46.356;17.798;2022-08-19T06:04:06;22.73;;;8.63;;
44212;SDS011;29882;46.356;17.798;2022-08-19T06:06:33;21.95;;;9.60;;
44212;SDS011;29882;46.356;17.798;2022-08-19T06:09:02;17.70;;;9.88;;
44212;SDS011;29882;46.356;17.798;2022-08-19T06:14:10;36.35;;;11.52;;
44212;SDS011;29882;46.356;17.798;2022-08-19T06:16:42;19.10;;;8.52;;
44212;SDS011;29882;46.356;17.798;2022-08-19T06:19:14;17.10;;;8.43;;
44212;SDS011;29882;46.356;17.798;2022-08-19T06:21:44;18.83;;;7.97;;
44212;SDS011;29882;46.356;17.798;2022-08-19T06:24:15;12.98;;;7.45;;
44212;SDS011;29882;46.356;17.798;2022-08-19T06:26:45;14.13;;;6.82;;
44212;SDS011;29882;46.356;17.798;2022-08-19T06:29:34;17.60;;;8.35;;
44212;SDS011;29882;46.356;17.798;2022-08-19T06:32:02;14.68;;;7.55;;
44212;SDS011;29882;46.356;17.798;2022-08-19T06:34:30;22.70;;;8.20;;
44212;SDS011;29882;46.356;17.798;2022-08-19T06:36:59;15.00;;;6.45;;
44212;SDS011;29882;46.356;17.798;2022-08-19T06:39:29;17.23;;;7.05;;
44212;SDS011;29882;46.356;17.798;2022-08-19T06:42:00;13.73;;;6.72;;
44212;SDS011;29882;46.356;17.798;2022-08-19T06:44:30;15.90;;;7.03;;
44212;SDS011;29882;46.356;17.798;2022-08-19T06:47:09;11.02;;;6.95;;
44212;SDS011;29882;46.356;17.798;2022-08-19T06:49:41;16.40;;;6.65;;
44212;SDS011;29882;46.356;17.798;2022-08-19T06:52:10;14.27;;;7.78;;
44212;SDS011;29882;46.356;17.798;2022-08-19T06:54:41;16.83;;;7.75;;
44212;SDS011;29882;46.356;17.798;2022-08-19T06:57:23;13.55;;;7.28;;
44212;SDS011;29882;46.356;17.798;2022-08-19T06:59:51;16.83;;;7.22;;
44212;SDS011;29882;46.356;17.798;2022-08-19T07:02:18;12.25;;;6.78;;
44212;SDS011;29882;46.356;17.798;2022-08-19T07:04:45;13.38;;;6.28;;
44212;SDS011;29882;46.356;17.798;2022-08-19T07:07:14;21.50;;;7.60;;
44212;SDS011;29882;46.356;17.798;2022-08-19T07:09:48;20.60;;;7.22;;
44212;SDS011;29882;46.356;17.798;2022-08-19T07:12:28;14.25;;;6.15;;
44212;SDS011;29882;46.356;17.798;2022-08-19T07:15:07;12.50;;;6.35;;
44212;SDS011;29882;46.356;17.798;2022-08-19T07:17:37;12.88;;;6.47;;
44212;SDS011;29882;46.356;17.798;2022-08-19T07:20:07;11.73;;;5.90;;
44212;SDS011;29882;46.356;17.798;2022-08-19T07:22:36;14.30;;;6.60;;
44212;SDS011;29882;46.356;17.798;2022-08-19T07:25:06;12.45;;;6.15;;
44212;SDS011;29882;46.356;17.798;2022-08-19T07:27:36;11.00;;;6.18;;
44212;SDS011;29882;46.356;17.798;2022-08-19T07:30:05;11.85;;;6.68;;
44212;SDS011;29882;46.356;17.798;2022-08-19T07:32:37;14.63;;;6.15;;
44212;SDS011;29882;46.356;17.798;2022-08-19T07:35:04;10.00;;;5.53;;
44212;SDS011;29882;46.356;17.798;2022-08-19T07:37:33;15.15;;;6.90;;
44212;SDS011;29882;46.356;17.798;2022-08-19T07:40:03;19.95;;;6.75;;
44212;SDS011;29882;46.356;17.798;2022-08-19T07:42:32;15.38;;;7.40;;
44212;SDS011;29882;46.356;17.798;2022-08-19T07:44:59;14.25;;;6.40;;
44212;SDS011;29882;46.356;17.798;2022-08-19T07:47:26;11.70;;;5.90;;
44212;SDS011;29882;46.356;17.798;2022-08-19T07:50:15;14.73;;;6.07;;
44212;SDS011;29882;46.356;17.798;2022-08-19T07:52:43;10.52;;;5.78;;
44212;SDS011;29882;46.356;17.798;2022-08-19T07:55:15;10.55;;;5.57;;
44212;SDS011;29882;46.356;17.798;2022-08-19T07:58:04;13.95;;;6.18;;
44212;SDS011;29882;46.356;17.798;2022-08-19T08:00:31;14.20;;;5.55;;
44212;SDS011;29882;46.356;17.798;2022-08-19T08:02:58;8.80;;;4.93;;
44212;SDS011;29882;46.356;17.798;2022-08-19T08:05:26;12.55;;;5.50;;
44212;SDS011;29882;46.356;17.798;2022-08-19T08:08:28;17.13;;;6.70;;
44212;SDS011;29882;46.356;17.798;2022-08-19T08:11:16;13.02;;;6.22;;
44212;SDS011;29882;46.356;17.798;2022-08-19T08:13:46;15.75;;;5.93;;
44212;SDS011;29882;46.356;17.798;2022-08-19T08:16:30;18.48;;;6.82;;
44212;SDS011;29882;46.356;17.798;2022-08-19T08:19:12;16.92;;;6.20;;
44212;SDS011;29882;46.356;17.798;2022-08-19T08:21:51;15.68;;;5.53;;
44212;SDS011;29882;46.356;17.798;2022-08-19T08:24:20;17.08;;;6.03;;
44212;SDS011;29882;46.356;17.798;2022-08-19T08:26:53;15.35;;;5.72;;
44212;SDS011;29882;46.356;17.798;2022-08-19T08:29:23;12.27;;;5.70;;
44212;SDS011;29882;46.356;17.798;2022-08-19T08:31:51;13.85;;;5.55;;
44212;SDS011;29882;46.356;17.798;2022-08-19T08:34:25;14.43;;;5.95;;
44212;SDS011;29882;46.356;17.798;2022-08-19T08:36:52;21.13;;;6.38;;
44212;SDS011;29882;46.356;17.798;2022-08-19T08:39:19;10.55;;;5.30;;
44212;SDS011;29882;46.356;17.798;2022-08-19T08:47:03;10.98;;;5.60;;
44212;SDS011;29882;46.356;17.798;2022-08-19T08:49:40;11.73;;;5.70;;
44212;SDS011;29882;46.356;17.798;2022-08-19T08:52:11;12.32;;;6.00;;
44212;SDS011;29882;46.356;17.798;2022-08-19T08:55:07;10.32;;;5.50;;
44212;SDS011;29882;46.356;17.798;2022-08-19T09:00:23;10.98;;;6.07;;
44212;SDS011;29882;46.356;17.798;2022-08-19T09:02:56;12.68;;;5.78;;
44212;SDS011;29882;46.356;17.798;2022-08-19T09:05:27;13.57;;;6.07;;
44212;SDS011;29882;46.356;17.798;2022-08-19T09:08:20;15.85;;;5.88;;
44212;SDS011;29882;46.356;17.798;2022-08-19T09:10:57;12.27;;;6.43;;
44212;SDS011;29882;46.356;17.798;2022-08-19T09:16:15;12.82;;;6.72;;
44212;SDS011;29882;46.356;17.798;2022-08-19T09:18:57;16.08;;;5.78;;
44212;SDS011;29882;46.356;17.798;2022-08-19T09:21:31;11.02;;;6.20;;
44212;SDS011;29882;46.356;17.798;2022-08-19T09:24:00;11.05;;;5.80;;
44212;SDS011;29882;46.356;17.798;2022-08-19T09:26:29;11.88;;;5.70;;
44212;SDS011;29882;46.356;17.798;2022-08-19T09:29:14;12.02;;;5.40;;
44212;SDS011;29882;46.356;17.798;2022-08-19T09:31:43;18.15;;;5.88;;
44212;SDS011;29882;46.356;17.798;2022-08-19T09:34:10;14.38;;;5.53;;
44212;SDS011;29882;46.356;17.798;2022-08-19T09:36:47;15.88;;;5.38;;
44212;SDS011;29882;46.356;17.798;2022-08-19T09:39:19;10.10;;;4.82;;
44212;SDS011;29882;46.356;17.798;2022-08-19T09:41:46;10.27;;;4.88;;
44212;SDS011;29882;46.356;17.798;2022-08-19T09:44:14;10.80;;;5.07;;
44212;SDS011;29882;46.356;17.798;2022-08-19T09:46:44;11.13;;;4.63;;
44212;SDS011;29882;46.356;17.798;2022-08-19T09:49:14;10.50;;;5.25;;
44212;SDS011;29882;46.356;17.798;2022-08-19T09:51:44;10.35;;;4.75;;
44212;SDS011;29882;46.356;17.798;2022-08-19T09:54:17;15.35;;;5.25;;
44212;SDS011;29882;46.356;17.798;2022-08-19T09:56:50;13.43;;;5.07;;
44212;SDS011;29882;46.356;17.798;2022-08-19T09:59:17;9.95;;;4.35;;
44212;SDS011;29882;46.356;17.798;2022-08-19T10:01:44;10.63;;;3.92;;
44212;SDS011;29882;46.356;17.798;2022-08-19T10:04:11;16.30;;;4.28;;
44212;SDS011;29882;46.356;17.798;2022-08-19T10:06:46;10.57;;;4.45;;
44212;SDS011;29882;46.356;17.798;2022-08-19T10:09:19;16.05;;;4.85;;
44212;SDS011;29882;46.356;17.798;2022-08-19T10:12:00;9.90;;;4.45;;
44212;SDS011;29882;46.356;17.798;2022-08-19T10:14:28;15.02;;;4.47;;
44212;SDS011;29882;46.356;17.798;2022-08-19T10:16:55;10.55;;;4.35;;
44212;SDS011;29882;46.356;17.798;2022-08-19T10:19:24;11.88;;;5.25;;
44212;SDS011;29882;46.356;17.798;2022-08-19T10:21:55;13.13;;;4.30;;
44212;SDS011;29882;46.356;17.798;2022-08-19T10:24:26;11.27;;;4.32;;
44212;SDS011;29882;46.356;17.798;2022-08-19T10:26:54;19.75;;;4.85;;
44212;SDS011;29882;46.356;17.798;2022-08-19T10:29:26;11.43;;;4.47;;
44212;SDS011;29882;46.356;17.798;2022-08-19T10:32:03;9.70;;;4.32;;
44212;SDS011;29882;46.356;17.798;2022-08-19T10:34:36;9.85;;;4.75;;
44212;SDS011;29882;46.356;17.798;2022-08-19T10:37:13;14.07;;;5.18;;
44212;SDS011;29882;46.356;17.798;2022-08-19T10:39:49;11.82;;;4.63;;
44212;SDS011;29882;46.356;17.798;2022-08-19T10:42:17;11.60;;;4.45;;
44212;SDS011;29882;46.356;17.798;2022-08-19T10:44:45;12.27;;;4.50;;
44212;SDS011;29882;46.356;17.798;2022-08-19T10:47:13;12.88;;;4.38;;
44212;SDS011;29882;46.356;17.798;2022-08-19T10:49:50;12.77;;;4.05;;
44212;SDS011;29882;46.356;17.798;2022-08-19T10:52:41;23.70;;;4.32;;
44212;SDS011;29882;46.356;17.798;2022-08-19T10:55:14;14.50;;;3.97;;
44212;SDS011;29882;46.356;17.798;2022-08-19T10:58:01;9.73;;;3.97;;
44212;SDS011;29882;46.356;17.798;2022-08-19T11:00:30;14.30;;;4.47;;
44212;SDS011;29882;46.356;17.798;2022-08-19T11:02:58;16.42;;;4.18;;
44212;SDS011;29882;46.356;17.798;2022-08-19T11:05:25;13.65;;;4.25;;
44212;SDS011;29882;46.356;17.798;2022-08-19T11:07:52;19.75;;;4.22;;
44212;SDS011;29882;46.356;17.798;2022-08-19T11:10:20;15.38;;;4.38;;
44212;SDS011;29882;46.356;17.798;2022-08-19T11:12:50;11.73;;;3.42;;
44212;SDS011;29882;46.356;17.798;2022-08-19T11:15:21;20.05;;;4.32;;
44212;SDS011;29882;46.356;17.798;2022-08-19T11:17:51;20.80;;;4.35;;
44212;SDS011;29882;46.356;17.798;2022-08-19T11:20:19;18.60;;;4.50;;
44212;SDS011;29882;46.356;17.798;2022-08-19T11:22:47;14.60;;;3.78;;
44212;SDS011;29882;46.356;17.798;2022-08-19T11:25:17;19.17;;;4.32;;
44212;SDS011;29882;46.356;17.798;2022-08-19T11:27:44;15.07;;;4.13;;
44212;SDS011;29882;46.356;17.798;2022-08-19T11:30:12;14.25;;;3.92;;
44212;SDS011;29882;46.356;17.798;2022-08-19T11:32:41;13.07;;;4.00;;
44212;SDS011;29882;46.356;17.798;2022-08-19T11:35:14;17.88;;;4.47;;
44212;SDS011;29882;46.356;17.798;2022-08-19T11:37:42;14.05;;;4.38;;
44212;SDS011;29882;46.356;17.798;2022-08-19T11:40:09;17.75;;;4.38;;
44212;SDS011;29882;46.356;17.798;2022-08-19T11:42:37;11.30;;;4.50;;
44212;SDS011;29882;46.356;17.798;2022-08-19T11:45:24;14.75;;;4.35;;
44212;SDS011;29882;46.356;17.798;2022-08-19T11:47:53;8.63;;;4.00;;
44212;SDS011;29882;46.356;17.798;2022-08-19T11:50:21;12.88;;;3.50;;
44212;SDS011;29882;46.356;17.798;2022-08-19T11:52:50;15.63;;;4.10;;
44212;SDS011;29882;46.356;17.798;2022-08-19T11:55:21;13.68;;;4.07;;
44212;SDS011;29882;46.356;17.798;2022-08-19T11:57:48;10.40;;;3.92;;
44212;SDS011;29882;46.356;17.798;2022-08-19T12:00:16;15.52;;;3.95;;
44212;SDS011;29882;46.356;17.798;2022-08-19T12:02:43;9.32;;;4.05;;
44212;SDS011;29882;46.356;17.798;2022-08-19T12:05:10;16.42;;;4.32;;
44212;SDS011;29882;46.356;17.798;2022-08-19T12:07:39;14.38;;;3.95;;
44212;SDS011;29882;46.356;17.798;2022-08-19T12:10:08;13.48;;;4.22;;
44212;SDS011;29882;46.356;17.798;2022-08-19T12:12:37;16.20;;;4.53;;
44212;SDS011;29882;46.356;17.798;2022-08-19T12:15:10;13.75;;;4.53;;
44212;SDS011;29882;46.356;17.798;2022-08-19T12:17:38;15.00;;;3.65;;
44212;SDS011;29882;46.356;17.798;2022-08-19T12:20:05;15.48;;;4.47;;
44212;SDS011;29882;46.356;17.798;2022-08-19T12:22:36;10.27;;;4.28;;
44212;SDS011;29882;46.356;17.798;2022-08-19T12:25:04;11.23;;;3.60;;
44212;SDS011;29882;46.356;17.798;2022-08-19T12:27:32;20.10;;;4.90;;
44212;SDS011;29882;46.356;17.798;2022-08-19T12:30:08;19.13;;;4.93;;
44212;SDS011;29882;46.356;17.798;2022-08-19T12:32:37;24.13;;;4.38;;
44212;SDS011;29882;46.356;17.798;2022-08-19T12:35:06;22.52;;;4.55;;
44212;SDS011;29882;46.356;17.798;2022-08-19T12:37:35;17.40;;;4.90;;
44212;SDS011;29882;46.356;17.798;2022-08-19T12:40:02;30.60;;;5.40;;
44212;SDS011;29882;46.356;17.798;2022-08-19T12:42:30;21.63;;;4.55;;
44212;SDS011;29882;46.356;17.798;2022-08-19T12:44:57;22.20;;;5.20;;
44212;SDS011;29882;46.356;17.798;2022-08-19T12:47:24;20.20;;;5.30;;
44212;SDS011;29882;46.356;17.798;2022-08-19T12:49:53;15.77;;;4.82;;
44212;SDS011;29882;46.356;17.798;2022-08-19T12:52:22;16.13;;;4.20;;
44212;SDS011;29882;46.356;17.798;2022-08-19T12:54:52;24.50;;;4.93;;
44212;SDS011;29882;46.356;17.798;2022-08-19T12:57:22;20.80;;;4.63;;
44212;SDS011;29882;46.356;17.798;2022-08-19T13:00:32;20.23;;;4.30;;
44212;SDS011;29882;46.356;17.798;2022-08-19T13:05:19;27.25;;;5.50;;
44212;SDS011;29882;46.356;17.798;2022-08-19T13:07:52;30.55;;;5.93;;
44212;SDS011;29882;46.356;17.798;2022-08-19T13:10:24;18.97;;;5.27;;
44212;SDS011;29882;46.356;17.798;2022-08-19T13:12:54;17.08;;;4.90;;
44212;SDS011;29882;46.356;17.798;2022-08-19T13:15:22;28.80;;;5.25;;
44212;SDS011;29882;46.356;17.798;2022-08-19T13:17:51;31.40;;;5.70;;
44212;SDS011;29882;46.356;17.798;2022-08-19T13:20:20;21.95;;;6.05;;
44212;SDS011;29882;46.356;17.798;2022-08-19T13:22:48;20.83;;;5.05;;
44212;SDS011;29882;46.356;17.798;2022-08-19T13:25:16;27.55;;;5.78;;
44212;SDS011;29882;46.356;17.798;2022-08-19T13:27:46;19.13;;;5.03;;
44212;SDS011;29882;46.356;17.798;2022-08-19T13:30:15;25.75;;;5.80;;
44212;SDS011;29882;46.356;17.798;2022-08-19T13:33:01;22.65;;;5.60;;
44212;SDS011;29882;46.356;17.798;2022-08-19T13:35:38;16.88;;;5.63;;
44212;SDS011;29882;46.356;17.798;2022-08-19T13:38:11;24.42;;;6.05;;
44212;SDS011;29882;46.356;17.798;2022-08-19T13:40:39;21.20;;;5.85;;
44212;SDS011;29882;46.356;17.798;2022-08-19T13:43:07;20.40;;;5.07;;
44212;SDS011;29882;46.356;17.798;2022-08-19T13:45:51;18.17;;;4.85;;
44212;SDS011;29882;46.356;17.798;2022-08-19T13:48:23;20.33;;;4.82;;
44212;SDS011;29882;46.356;17.798;2022-08-19T13:50:53;26.83;;;4.82;;
44212;SDS011;29882;46.356;17.798;2022-08-19T13:53:20;22.25;;;5.43;;
44212;SDS011;29882;46.356;17.798;2022-08-19T13:55:47;23.10;;;5.07;;
44212;SDS011;29882;46.356;17.798;2022-08-19T13:58:16;17.48;;;4.50;;
44212;SDS011;29882;46.356;17.798;2022-08-19T14:00:44;22.83;;;5.38;;
44212;SDS011;29882;46.356;17.798;2022-08-19T14:03:12;19.50;;;4.90;;
44212;SDS011;29882;46.356;17.798;2022-08-19T14:05:40;24.15;;;5.63;;
44212;SDS011;29882;46.356;17.798;2022-08-19T14:08:07;24.15;;;5.10;;
44212;SDS011;29882;46.356;17.798;2022-08-19T14:10:35;22.45;;;4.90;;
44212;SDS011;29882;46.356;17.798;2022-08-19T14:13:03;26.15;;;5.22;;
44212;SDS011;29882;46.356;17.798;2022-08-19T14:15:30;28.10;;;5.55;;
44212;SDS011;29882;46.356;17.798;2022-08-19T14:17:58;25.63;;;5.05;;
44212;SDS011;29882;46.356;17.798;2022-08-19T14:20:26;19.20;;;5.90;;
44212;SDS011;29882;46.356;17.798;2022-08-19T14:22:53;22.48;;;5.53;;
44212;SDS011;29882;46.356;17.798;2022-08-19T14:25:22;22.02;;;5.57;;
44212;SDS011;29882;46.356;17.798;2022-08-19T14:27:52;22.23;;;5.00;;
44212;SDS011;29882;46.356;17.798;2022-08-19T14:30:22;21.88;;;5.70;;
44212;SDS011;29882;46.356;17.798;2022-08-19T14:32:55;22.40;;;5.50;;
44212;SDS011;29882;46.356;17.798;2022-08-19T14:35:25;19.55;;;4.93;;
44212;SDS011;29882;46.356;17.798;2022-08-19T14:37:53;20.23;;;5.50;;
44212;SDS011;29882;46.356;17.798;2022-08-19T14:40:24;20.45;;;5.47;;
44212;SDS011;29882;46.356;17.798;2022-08-19T14:42:53;17.70;;;4.57;;
44212;SDS011;29882;46.356;17.798;2022-08-19T14:45:27;23.88;;;4.47;;
44212;SDS011;29882;46.356;17.798;2022-08-19T14:47:54;22.27;;;5.80;;
44212;SDS011;29882;46.356;17.798;2022-08-19T14:50:22;22.52;;;5.70;;
44212;SDS011;29882;46.356;17.798;2022-08-19T14:52:49;22.77;;;5.88;;
44212;SDS011;29882;46.356;17.798;2022-08-19T14:55:17;22.92;;;6.07;;
44212;SDS011;29882;46.356;17.798;2022-08-19T14:57:45;18.08;;;4.85;;
44212;SDS011;29882;46.356;17.798;2022-08-19T15:00:12;17.27;;;4.60;;
44212;SDS011;29882;46.356;17.798;2022-08-19T15:02:40;18.20;;;5.18;;
44212;SDS011;29882;46.356;17.798;2022-08-19T15:05:10;22.42;;;5.85;;
44212;SDS011;29882;46.356;17.798;2022-08-19T15:07:39;15.40;;;4.57;;
44212;SDS011;29882;46.356;17.798;2022-08-19T15:10:08;17.50;;;4.30;;
44212;SDS011;29882;46.356;17.798;2022-08-19T15:12:36;15.90;;;4.53;;
44212;SDS011;29882;46.356;17.798;2022-08-19T15:15:11;19.63;;;4.63;;
44212;SDS011;29882;46.356;17.798;2022-08-19T15:17:41;19.88;;;5.00;;
44212;SDS011;29882;46.356;17.798;2022-08-19T15:20:19;22.63;;;4.97;;
44212;SDS011;29882;46.356;17.798;2022-08-19T15:22:49;19.90;;;5.40;;
44212;SDS011;29882;46.356;17.798;2022-08-19T15:25:17;17.35;;;4.60;;
44212;SDS011;29882;46.356;17.798;2022-08-19T15:27:45;22.33;;;5.15;;
44212;SDS011;29882;46.356;17.798;2022-08-19T15:30:25;17.20;;;4.93;;
44212;SDS011;29882;46.356;17.798;2022-08-19T15:32:55;22.05;;;4.72;;
44212;SDS011;29882;46.356;17.798;2022-08-19T15:35:23;16.23;;;4.40;;
44212;SDS011;29882;46.356;17.798;2022-08-19T15:37:51;17.35;;;5.07;;
44212;SDS011;29882;46.356;17.798;2022-08-19T15:40:20;17.58;;;4.43;;
44212;SDS011;29882;46.356;17.798;2022-08-19T15:42:48;17.70;;;5.60;;
44212;SDS011;29882;46.356;17.798;2022-08-19T15:45:16;20.85;;;5.68;;
44212;SDS011;29882;46.356;17.798;2022-08-19T15:47:45;19.63;;;5.20;;
44212;SDS011;29882;46.356;17.798;2022-08-19T15:50:14;15.40;;;4.90;;
44212;SDS011;29882;46.356;17.798;2022-08-19T15:52:50;19.85;;;5.63;;
44212;SDS011;29882;46.356;17.798;2022-08-19T15:55:24;19.02;;;5.70;;
44212;SDS011;29882;46.356;17.798;2022-08-19T15:58:06;20.00;;;4.95;;
44212;SDS011;29882;46.356;17.798;2022-08-19T16:00:59;19.77;;;5.25;;
44212;SDS011;29882;46.356;17.798;2022-08-19T16:03:50;23.35;;;4.95;;
44212;SDS011;29882;46.356;17.798;2022-08-19T16:06:51;24.02;;;5.57;;
44212;SDS011;29882;46.356;17.798;2022-08-19T16:09:21;24.40;;;5.43;;
44212;SDS011;29882;46.356;17.798;2022-08-19T16:11:54;24.70;;;5.43;;
44212;SDS011;29882;46.356;17.798;2022-08-19T16:14:27;22.92;;;6.15;;
44212;SDS011;29882;46.356;17.798;2022-08-19T16:16:56;19.10;;;5.38;;
44212;SDS011;29882;46.356;17.798;2022-08-19T16:19:23;18.52;;;4.85;;
44212;SDS011;29882;46.356;17.798;2022-08-19T16:21:52;18.48;;;5.00;;
44212;SDS011;29882;46.356;17.798;2022-08-19T16:24:21;17.65;;;4.90;;
44212;SDS011;29882;46.356;17.798;2022-08-19T16:26:51;25.25;;;6.40;;
44212;SDS011;29882;46.356;17.798;2022-08-19T16:29:18;20.85;;;5.60;;
44212;SDS011;29882;46.356;17.798;2022-08-19T16:32:05;21.38;;;5.88;;
44212;SDS011;29882;46.356;17.798;2022-08-19T16:34:36;24.35;;;5.57;;
44212;SDS011;29882;46.356;17.798;2022-08-19T16:37:07;22.80;;;5.82;;
44212;SDS011;29882;46.356;17.798;2022-08-19T16:39:35;24.40;;;6.25;;
44212;SDS011;29882;46.356;17.798;2022-08-19T16:42:03;24.27;;;5.72;;
44212;SDS011;29882;46.356;17.798;2022-08-19T16:44:33;20.27;;;5.95;;
44212;SDS011;29882;46.356;17.798;2022-08-19T16:47:01;21.08;;;5.93;;
44212;SDS011;29882;46.356;17.798;2022-08-19T16:49:29;20.58;;;5.40;;
44212;SDS011;29882;46.356;17.798;2022-08-19T16:52:17;20.15;;;5.85;;
44212;SDS011;29882;46.356;17.798;2022-08-19T16:54:44;20.65;;;5.57;;
44212;SDS011;29882;46.356;17.798;2022-08-19T16:57:12;17.65;;;5.68;;
44212;SDS011;29882;46.356;17.798;2022-08-19T16:59:39;20.88;;;5.05;;
44212;SDS011;29882;46.356;17.798;2022-08-19T17:02:15;20.98;;;5.60;;
44212;SDS011;29882;46.356;17.798;2022-08-19T17:04:43;25.50;;;6.18;;
44212;SDS011;29882;46.356;17.798;2022-08-19T17:07:27;27.55;;;6.05;;
44212;SDS011;29882;46.356;17.798;2022-08-19T17:09:59;23.38;;;5.97;;
44212;SDS011;29882;46.356;17.798;2022-08-19T17:12:27;22.77;;;5.82;;
44212;SDS011;29882;46.356;17.798;2022-08-19T17:14:58;21.33;;;5.30;;
44212;SDS011;29882;46.356;17.798;2022-08-19T17:17:26;21.83;;;6.38;;
44212;SDS011;29882;46.356;17.798;2022-08-19T17:19:55;21.70;;;6.40;;
44212;SDS011;29882;46.356;17.798;2022-08-19T17:22:26;24.40;;;6.15;;
44212;SDS011;29882;46.356;17.798;2022-08-19T17:24:54;18.90;;;5.97;;
44212;SDS011;29882;46.356;17.798;2022-08-19T17:27:24;21.95;;;6.43;;
44212;SDS011;29882;46.356;17.798;2022-08-19T17:29:58;20.30;;;6.53;;
44212;SDS011;29882;46.356;17.798;2022-08-19T17:32:28;18.88;;;5.22;;
44212;SDS011;29882;46.356;17.798;2022-08-19T17:34:58;17.38;;;5.47;;
44212;SDS011;29882;46.356;17.798;2022-08-19T17:37:25;20.45;;;5.90;;
44212;SDS011;29882;46.356;17.798;2022-08-19T17:39:53;17.75;;;6.22;;
44212;SDS011;29882;46.356;17.798;2022-08-19T17:42:21;20.85;;;5.75;;
44212;SDS011;29882;46.356;17.798;2022-08-19T17:44:48;23.67;;;6.05;;
44212;SDS011;29882;46.356;17.798;2022-08-19T17:47:17;21.63;;;5.85;;
44212;SDS011;29882;46.356;17.798;2022-08-19T17:49:45;21.00;;;5.07;;
44212;SDS011;29882;46.356;17.798;2022-08-19T17:52:12;21.50;;;5.88;;
44212;SDS011;29882;46.356;17.798;2022-08-19T17:54:39;24.45;;;7.00;;
44212;SDS011;29882;46.356;17.798;2022-08-19T17:57:06;26.60;;;6.82;;
44212;SDS011;29882;46.356;17.798;2022-08-19T17:59:34;19.88;;;6.13;;
44212;SDS011;29882;46.356;17.798;2022-08-19T18:02:03;22.13;;;6.55;;
44212;SDS011;29882;46.356;17.798;2022-08-19T18:04:31;20.63;;;6.05;;
44212;SDS011;29882;46.356;17.798;2022-08-19T18:06:59;23.60;;;7.50;;
44212;SDS011;29882;46.356;17.798;2022-08-19T18:09:31;19.65;;;6.20;;
44212;SDS011;29882;46.356;17.798;2022-08-19T18:12:11;27.75;;;7.45;;
44212;SDS011;29882;46.356;17.798;2022-08-19T18:14:39;23.45;;;5.82;;
44212;SDS011;29882;46.356;17.798;2022-08-19T18:17:08;22.65;;;6.15;;
44212;SDS011;29882;46.356;17.798;2022-08-19T18:19:38;19.73;;;6.32;;
44212;SDS011;29882;46.356;17.798;2022-08-19T18:22:19;26.52;;;6.32;;
44212;SDS011;29882;46.356;17.798;2022-08-19T18:24:48;23.08;;;6.22;;
44212;SDS011;29882;46.356;17.798;2022-08-19T18:27:15;24.80;;;6.85;;
44212;SDS011;29882;46.356;17.798;2022-08-19T18:29:42;20.17;;;5.93;;
44212;SDS011;29882;46.356;17.798;2022-08-19T18:32:10;22.38;;;6.68;;
44212;SDS011;29882;46.356;17.798;2022-08-19T18:34:39;24.42;;;6.60;;
44212;SDS011;29882;46.356;17.798;2022-08-19T18:37:07;23.85;;;6.88;;
44212;SDS011;29882;46.356;17.798;2022-08-19T18:39:34;21.45;;;6.78;;
44212;SDS011;29882;46.356;17.798;2022-08-19T18:42:21;20.80;;;6.75;;
44212;SDS011;29882;46.356;17.798;2022-08-19T18:45:07;16.58;;;5.78;;
44212;SDS011;29882;46.356;17.798;2022-08-19T18:47:53;19.60;;;6.70;;
44212;SDS011;29882;46.356;17.798;2022-08-19T18:50:54;27.10;;;7.57;;
44212;SDS011;29882;46.356;17.798;2022-08-19T18:53:22;24.25;;;6.35;;
44212;SDS011;29882;46.356;17.798;2022-08-19T18:55:50;23.25;;;6.70;;
44212;SDS011;29882;46.356;17.798;2022-08-19T18:58:20;24.88;;;7.15;;
44212;SDS011;29882;46.356;17.798;2022-08-19T19:01:02;26.33;;;10.98;;
44212;SDS011;29882;46.356;17.798;2022-08-19T19:06:15;28.42;;;8.35;;
44212;SDS011;29882;46.356;17.798;2022-08-19T19:08:48;21.85;;;6.93;;
44212;SDS011;29882;46.356;17.798;2022-08-19T19:11:18;20.55;;;6.97;;
44212;SDS011;29882;46.356;17.798;2022-08-19T19:13:52;18.63;;;5.97;;
44212;SDS011;29882;46.356;17.798;2022-08-19T19:16:20;18.88;;;6.50;;
44212;SDS011;29882;46.356;17.798;2022-08-19T19:18:50;19.30;;;6.57;;
44212;SDS011;29882;46.356;17.798;2022-08-19T19:21:18;23.05;;;7.05;;
44212;SDS011;29882;46.356;17.798;2022-08-19T19:23:47;17.58;;;5.95;;
44212;SDS011;29882;46.356;17.798;2022-08-19T19:26:15;21.67;;;6.28;;
44212;SDS011;29882;46.356;17.798;2022-08-19T19:28:43;19.75;;;6.35;;
44212;SDS011;29882;46.356;17.798;2022-08-19T19:31:16;17.38;;;6.07;;
44212;SDS011;29882;46.356;17.798;2022-08-19T19:33:46;22.77;;;6.63;;
44212;SDS011;29882;46.356;17.798;2022-08-19T19:36:13;19.38;;;5.38;;
44212;SDS011;29882;46.356;17.798;2022-08-19T19:38:41;21.42;;;5.53;;
44212;SDS011;29882;46.356;17.798;2022-08-19T19:41:15;18.50;;;5.30;;
44212;SDS011;29882;46.356;17.798;2022-08-19T19:43:44;17.40;;;6.10;;
44212;SDS011;29882;46.356;17.798;2022-08-19T19:46:12;16.48;;;5.65;;